sensor_id;sensor_type;location;lat;lon;timestamp;P1;durP1;ratioP1;P2;durP2;ratioP2
4555;SDS011;2290;48.674;9.018;2023-04-24T00:00:30;1.07;;;0.97;;
4555;SDS011;2290;48.674;9.018;2023-04-24T00:02:56;2.43;;;1.00;;
4555;SDS011;2290;48.674;9.018;2023-04-24T00:05:24;2.20;;;1.20;;
4555;SDS011;2290;48.674;9.018;2023-04-24T00:07:49;2.37;;;1.23;;
4555;SDS011;2290;48.674;9.018;2023-04-24T00:10:20;2.80;;;1.10;;
4555;SDS011;2290;48.674;9.018;2023-04-24T00:12:46;1.40;;;1.20;;
4555;SDS011;2290;48.674;9.018;2023-04-24T00:15:12;1.97;;;1.10;;
4555;SDS011;2290;48.674;9.018;2023-04-24T00:17:39;1.43;;;1.20;;
4555;SDS011;2290;48.674;9.018;2023-04-24T00:20:06;1.30;;;1.00;;
4555;SDS011;2290;48.674;9.018;2023-04-24T00:22:32;2.30;;;1.20;;
4555;SDS011;2290;48.674;9.018;2023-04-24T00:24:58;1.60;;;1.20;;
4555;SDS011;2290;48.674;9.018;2023-04-24T00:27:25;1.50;;;1.10;;
4555;SDS011;2290;48.674;9.018;2023-04-24T00:29:52;2.20;;;1.40;;
4555;SDS011;2290;48.674;9.018;2023-04-24T00:32:18;1.73;;;1.17;;
4555;SDS011;2290;48.674;9.018;2023-04-24T00:34:45;2.90;;;1.10;;
4555;SDS011;2290;48.674;9.018;2023-04-24T00:37:10;1.37;;;1.10;;
4555;SDS011;2290;48.674;9.018;2023-04-24T00:39:37;1.00;;;0.90;;
4555;SDS011;2290;48.674;9.018;2023-04-24T00:42:04;2.23;;;1.23;;
4555;SDS011;2290;48.674;9.018;2023-04-24T00:44:32;2.07;;;1.20;;
4555;SDS011;2290;48.674;9.018;2023-04-24T00:47:00;1.40;;;1.03;;
4555;SDS011;2290;48.674;9.018;2023-04-24T00:49:27;2.47;;;1.47;;
4555;SDS011;2290;48.674;9.018;2023-04-24T00:51:54;1.37;;;1.07;;
4555;SDS011;2290;48.674;9.018;2023-04-24T00:54:20;1.23;;;1.10;;
4555;SDS011;2290;48.674;9.018;2023-04-24T00:56:46;1.10;;;1.00;;
4555;SDS011;2290;48.674;9.018;2023-04-24T00:59:14;1.00;;;0.90;;
4555;SDS011;2290;48.674;9.018;2023-04-24T01:01:42;1.50;;;1.23;;
4555;SDS011;2290;48.674;9.018;2023-04-24T01:04:11;2.73;;;1.03;;
4555;SDS011;2290;48.674;9.018;2023-04-24T01:06:39;1.40;;;0.90;;
4555;SDS011;2290;48.674;9.018;2023-04-24T01:09:05;2.10;;;1.50;;
4555;SDS011;2290;48.674;9.018;2023-04-24T01:11:34;0.93;;;0.83;;
4555;SDS011;2290;48.674;9.018;2023-04-24T01:14:01;1.43;;;1.20;;
4555;SDS011;2290;48.674;9.018;2023-04-24T01:16:26;3.27;;;1.27;;
4555;SDS011;2290;48.674;9.018;2023-04-24T01:18:53;1.30;;;1.20;;
4555;SDS011;2290;48.674;9.018;2023-04-24T01:21:20;2.70;;;1.10;;
4555;SDS011;2290;48.674;9.018;2023-04-24T01:23:48;1.83;;;0.90;;
4555;SDS011;2290;48.674;9.018;2023-04-24T01:26:16;1.67;;;1.00;;
4555;SDS011;2290;48.674;9.018;2023-04-24T01:28:43;0.90;;;0.80;;
4555;SDS011;2290;48.674;9.018;2023-04-24T01:31:09;3.80;;;1.20;;
4555;SDS011;2290;48.674;9.018;2023-04-24T01:33:34;1.20;;;1.00;;
4555;SDS011;2290;48.674;9.018;2023-04-24T01:36:00;1.13;;;1.00;;
4555;SDS011;2290;48.674;9.018;2023-04-24T01:38:28;1.63;;;1.07;;
4555;SDS011;2290;48.674;9.018;2023-04-24T01:40:54;1.60;;;1.00;;
4555;SDS011;2290;48.674;9.018;2023-04-24T01:43:22;1.97;;;1.00;;
4555;SDS011;2290;48.674;9.018;2023-04-24T01:45:49;2.40;;;1.40;;
4555;SDS011;2290;48.674;9.018;2023-04-24T01:48:15;1.13;;;1.00;;
4555;SDS011;2290;48.674;9.018;2023-04-24T01:50:40;1.30;;;1.20;;
4555;SDS011;2290;48.674;9.018;2023-04-24T01:53:06;1.20;;;1.10;;
4555;SDS011;2290;48.674;9.018;2023-04-24T01:55:33;1.10;;;1.00;;
4555;SDS011;2290;48.674;9.018;2023-04-24T01:58:00;1.77;;;1.30;;
4555;SDS011;2290;48.674;9.018;2023-04-24T02:00:27;1.40;;;1.10;;
4555;SDS011;2290;48.674;9.018;2023-04-24T02:02:52;4.40;;;1.47;;
4555;SDS011;2290;48.674;9.018;2023-04-24T02:05:18;1.40;;;0.97;;
4555;SDS011;2290;48.674;9.018;2023-04-24T02:07:44;2.20;;;0.90;;
4555;SDS011;2290;48.674;9.018;2023-04-24T02:10:09;1.27;;;1.17;;
4555;SDS011;2290;48.674;9.018;2023-04-24T02:12:35;1.83;;;1.00;;
4555;SDS011;2290;48.674;9.018;2023-04-24T02:15:02;1.80;;;1.10;;
4555;SDS011;2290;48.674;9.018;2023-04-24T02:17:28;1.30;;;1.13;;
4555;SDS011;2290;48.674;9.018;2023-04-24T02:19:54;1.10;;;1.00;;
4555;SDS011;2290;48.674;9.018;2023-04-24T02:22:19;2.23;;;1.20;;
4555;SDS011;2290;48.674;9.018;2023-04-24T02:24:45;1.30;;;1.20;;
4555;SDS011;2290;48.674;9.018;2023-04-24T02:27:10;1.67;;;1.10;;
4555;SDS011;2290;48.674;9.018;2023-04-24T02:29:39;1.13;;;1.03;;
4555;SDS011;2290;48.674;9.018;2023-04-24T02:32:05;2.60;;;1.30;;
4555;SDS011;2290;48.674;9.018;2023-04-24T02:34:38;1.97;;;1.40;;
4555;SDS011;2290;48.674;9.018;2023-04-24T02:37:04;1.33;;;1.03;;
4555;SDS011;2290;48.674;9.018;2023-04-24T02:39:29;2.63;;;1.20;;
4555;SDS011;2290;48.674;9.018;2023-04-24T02:41:55;1.50;;;1.17;;
4555;SDS011;2290;48.674;9.018;2023-04-24T02:44:20;1.90;;;1.00;;
4555;SDS011;2290;48.674;9.018;2023-04-24T02:46:47;1.60;;;1.10;;
4555;SDS011;2290;48.674;9.018;2023-04-24T02:49:13;1.10;;;1.00;;
4555;SDS011;2290;48.674;9.018;2023-04-24T02:51:38;1.07;;;0.93;;
4555;SDS011;2290;48.674;9.018;2023-04-24T02:54:06;1.30;;;1.00;;
4555;SDS011;2290;48.674;9.018;2023-04-24T02:56:33;1.13;;;1.00;;
4555;SDS011;2290;48.674;9.018;2023-04-24T02:58:59;1.20;;;1.00;;
4555;SDS011;2290;48.674;9.018;2023-04-24T03:01:24;2.33;;;1.00;;
4555;SDS011;2290;48.674;9.018;2023-04-24T03:03:51;1.43;;;1.30;;
4555;SDS011;2290;48.674;9.018;2023-04-24T03:06:17;1.10;;;1.00;;
4555;SDS011;2290;48.674;9.018;2023-04-24T03:08:44;2.50;;;1.20;;
4555;SDS011;2290;48.674;9.018;2023-04-24T03:11:09;1.00;;;0.90;;
4555;SDS011;2290;48.674;9.018;2023-04-24T03:13:35;1.30;;;0.90;;
4555;SDS011;2290;48.674;9.018;2023-04-24T03:16:00;1.40;;;1.30;;
4555;SDS011;2290;48.674;9.018;2023-04-24T03:18:26;2.30;;;0.87;;
4555;SDS011;2290;48.674;9.018;2023-04-24T03:20:53;1.00;;;0.83;;
4555;SDS011;2290;48.674;9.018;2023-04-24T03:23:19;1.10;;;1.00;;
4555;SDS011;2290;48.674;9.018;2023-04-24T03:25:46;1.00;;;0.83;;
4555;SDS011;2290;48.674;9.018;2023-04-24T03:28:13;1.73;;;1.50;;
4555;SDS011;2290;48.674;9.018;2023-04-24T03:30:39;1.43;;;1.20;;
4555;SDS011;2290;48.674;9.018;2023-04-24T03:33:04;1.00;;;0.90;;
4555;SDS011;2290;48.674;9.018;2023-04-24T03:35:30;1.30;;;1.00;;
4555;SDS011;2290;48.674;9.018;2023-04-24T03:37:56;3.00;;;1.00;;
4555;SDS011;2290;48.674;9.018;2023-04-24T03:40:21;1.77;;;1.03;;
4555;SDS011;2290;48.674;9.018;2023-04-24T03:42:48;1.00;;;0.90;;
4555;SDS011;2290;48.674;9.018;2023-04-24T03:45:15;1.23;;;1.07;;
4555;SDS011;2290;48.674;9.018;2023-04-24T03:47:41;1.10;;;1.00;;
4555;SDS011;2290;48.674;9.018;2023-04-24T03:50:06;1.57;;;1.00;;
4555;SDS011;2290;48.674;9.018;2023-04-24T03:52:32;1.03;;;0.90;;
4555;SDS011;2290;48.674;9.018;2023-04-24T03:54:58;1.40;;;1.00;;
4555;SDS011;2290;48.674;9.018;2023-04-24T03:57:23;0.90;;;0.80;;
4555;SDS011;2290;48.674;9.018;2023-04-24T03:59:49;3.47;;;1.10;;
4555;SDS011;2290;48.674;9.018;2023-04-24T04:02:15;1.30;;;0.90;;
4555;SDS011;2290;48.674;9.018;2023-04-24T04:04:40;1.53;;;1.20;;
4555;SDS011;2290;48.674;9.018;2023-04-24T04:07:06;1.00;;;0.80;;
4555;SDS011;2290;48.674;9.018;2023-04-24T04:09:32;1.27;;;1.00;;
4555;SDS011;2290;48.674;9.018;2023-04-24T04:11:58;2.60;;;0.90;;
4555;SDS011;2290;48.674;9.018;2023-04-24T04:14:25;1.10;;;1.00;;
4555;SDS011;2290;48.674;9.018;2023-04-24T04:16:51;4.33;;;1.10;;
4555;SDS011;2290;48.674;9.018;2023-04-24T04:19:17;1.00;;;0.90;;
4555;SDS011;2290;48.674;9.018;2023-04-24T04:21:42;4.13;;;1.10;;
4555;SDS011;2290;48.674;9.018;2023-04-24T04:24:10;1.17;;;0.80;;
4555;SDS011;2290;48.674;9.018;2023-04-24T04:26:36;0.90;;;0.80;;
4555;SDS011;2290;48.674;9.018;2023-04-24T04:29:03;3.70;;;0.90;;
4555;SDS011;2290;48.674;9.018;2023-04-24T04:31:28;1.53;;;0.90;;
4555;SDS011;2290;48.674;9.018;2023-04-24T04:33:55;1.13;;;1.03;;
4555;SDS011;2290;48.674;9.018;2023-04-24T04:36:21;3.07;;;1.30;;
4555;SDS011;2290;48.674;9.018;2023-04-24T04:38:46;1.37;;;1.27;;
4555;SDS011;2290;48.674;9.018;2023-04-24T04:41:12;1.40;;;1.30;;
4555;SDS011;2290;48.674;9.018;2023-04-24T04:43:38;4.20;;;1.20;;
4555;SDS011;2290;48.674;9.018;2023-04-24T04:46:05;2.07;;;1.60;;
4555;SDS011;2290;48.674;9.018;2023-04-24T04:48:31;2.17;;;1.57;;
4555;SDS011;2290;48.674;9.018;2023-04-24T04:50:57;1.83;;;1.40;;
4555;SDS011;2290;48.674;9.018;2023-04-24T04:53:24;1.70;;;1.30;;
4555;SDS011;2290;48.674;9.018;2023-04-24T04:55:50;1.17;;;1.07;;
4555;SDS011;2290;48.674;9.018;2023-04-24T04:58:16;1.80;;;1.50;;
4555;SDS011;2290;48.674;9.018;2023-04-24T05:00:43;1.50;;;1.40;;
4555;SDS011;2290;48.674;9.018;2023-04-24T05:03:09;1.67;;;1.47;;
4555;SDS011;2290;48.674;9.018;2023-04-24T05:05:34;8.30;;;2.43;;
4555;SDS011;2290;48.674;9.018;2023-04-24T05:08:00;2.03;;;1.40;;
4555;SDS011;2290;48.674;9.018;2023-04-24T05:10:25;1.37;;;1.17;;
4555;SDS011;2290;48.674;9.018;2023-04-24T05:12:51;1.57;;;1.37;;
4555;SDS011;2290;48.674;9.018;2023-04-24T05:15:17;1.80;;;1.60;;
4555;SDS011;2290;48.674;9.018;2023-04-24T05:17:42;1.93;;;1.43;;
4555;SDS011;2290;48.674;9.018;2023-04-24T05:20:08;2.20;;;1.33;;
4555;SDS011;2290;48.674;9.018;2023-04-24T05:22:34;2.07;;;1.40;;
4555;SDS011;2290;48.674;9.018;2023-04-24T05:25:01;1.90;;;1.53;;
4555;SDS011;2290;48.674;9.018;2023-04-24T05:27:29;1.70;;;1.47;;
4555;SDS011;2290;48.674;9.018;2023-04-24T05:29:54;1.57;;;1.43;;
4555;SDS011;2290;48.674;9.018;2023-04-24T05:32:20;2.13;;;1.40;;
4555;SDS011;2290;48.674;9.018;2023-04-24T05:34:45;1.53;;;1.27;;
4555;SDS011;2290;48.674;9.018;2023-04-24T05:37:11;2.17;;;1.70;;
4555;SDS011;2290;48.674;9.018;2023-04-24T05:39:37;1.97;;;1.63;;
4555;SDS011;2290;48.674;9.018;2023-04-24T05:42:02;1.93;;;1.30;;
4555;SDS011;2290;48.674;9.018;2023-04-24T05:44:29;3.00;;;1.63;;
4555;SDS011;2290;48.674;9.018;2023-04-24T05:46:55;1.63;;;1.30;;
4555;SDS011;2290;48.674;9.018;2023-04-24T05:49:21;2.03;;;1.83;;
4555;SDS011;2290;48.674;9.018;2023-04-24T05:51:47;4.20;;;2.53;;
4555;SDS011;2290;48.674;9.018;2023-04-24T05:54:13;2.80;;;1.53;;
4555;SDS011;2290;48.674;9.018;2023-04-24T05:56:38;1.97;;;1.57;;
4555;SDS011;2290;48.674;9.018;2023-04-24T05:59:04;5.33;;;1.73;;
4555;SDS011;2290;48.674;9.018;2023-04-24T06:01:30;1.97;;;1.43;;
4555;SDS011;2290;48.674;9.018;2023-04-24T06:03:56;2.70;;;1.90;;
4555;SDS011;2290;48.674;9.018;2023-04-24T06:06:23;3.53;;;1.87;;
4555;SDS011;2290;48.674;9.018;2023-04-24T06:08:49;2.13;;;1.70;;
4555;SDS011;2290;48.674;9.018;2023-04-24T06:11:14;2.10;;;1.60;;
4555;SDS011;2290;48.674;9.018;2023-04-24T06:13:40;2.50;;;2.00;;
4555;SDS011;2290;48.674;9.018;2023-04-24T06:16:06;2.07;;;1.40;;
4555;SDS011;2290;48.674;9.018;2023-04-24T06:18:32;5.00;;;1.60;;
4555;SDS011;2290;48.674;9.018;2023-04-24T06:20:57;2.33;;;1.73;;
4555;SDS011;2290;48.674;9.018;2023-04-24T06:23:24;3.60;;;2.00;;
4555;SDS011;2290;48.674;9.018;2023-04-24T06:25:50;2.00;;;1.70;;
4555;SDS011;2290;48.674;9.018;2023-04-24T06:28:16;1.73;;;1.50;;
4555;SDS011;2290;48.674;9.018;2023-04-24T06:30:43;1.93;;;1.70;;
4555;SDS011;2290;48.674;9.018;2023-04-24T06:33:09;2.57;;;1.67;;
4555;SDS011;2290;48.674;9.018;2023-04-24T06:35:35;3.27;;;1.90;;
4555;SDS011;2290;48.674;9.018;2023-04-24T06:38:02;3.07;;;1.60;;
4555;SDS011;2290;48.674;9.018;2023-04-24T06:40:28;1.80;;;1.57;;
4555;SDS011;2290;48.674;9.018;2023-04-24T06:42:55;2.40;;;1.77;;
4555;SDS011;2290;48.674;9.018;2023-04-24T06:45:22;1.53;;;1.43;;
4555;SDS011;2290;48.674;9.018;2023-04-24T06:47:48;2.70;;;1.70;;
4555;SDS011;2290;48.674;9.018;2023-04-24T06:50:13;2.53;;;1.90;;
4555;SDS011;2290;48.674;9.018;2023-04-24T06:52:40;2.50;;;1.50;;
4555;SDS011;2290;48.674;9.018;2023-04-24T06:55:05;1.77;;;1.40;;
4555;SDS011;2290;48.674;9.018;2023-04-24T06:57:31;1.83;;;1.63;;
4555;SDS011;2290;48.674;9.018;2023-04-24T06:59:57;2.23;;;1.53;;
4555;SDS011;2290;48.674;9.018;2023-04-24T07:02:23;2.13;;;1.60;;
4555;SDS011;2290;48.674;9.018;2023-04-24T07:04:49;2.23;;;1.40;;
4555;SDS011;2290;48.674;9.018;2023-04-24T07:07:15;1.90;;;1.70;;
4555;SDS011;2290;48.674;9.018;2023-04-24T07:09:41;1.80;;;1.57;;
4555;SDS011;2290;48.674;9.018;2023-04-24T07:12:07;2.17;;;1.53;;
4555;SDS011;2290;48.674;9.018;2023-04-24T07:14:33;2.13;;;1.60;;
4555;SDS011;2290;48.674;9.018;2023-04-24T07:16:59;2.13;;;1.40;;
4555;SDS011;2290;48.674;9.018;2023-04-24T07:19:26;1.60;;;1.50;;
4555;SDS011;2290;48.674;9.018;2023-04-24T07:21:51;1.20;;;1.00;;
4555;SDS011;2290;48.674;9.018;2023-04-24T07:24:18;1.73;;;1.33;;
4555;SDS011;2290;48.674;9.018;2023-04-24T07:26:44;4.07;;;1.50;;
4555;SDS011;2290;48.674;9.018;2023-04-24T07:29:11;2.30;;;1.37;;
4555;SDS011;2290;48.674;9.018;2023-04-24T07:31:37;1.20;;;1.00;;
4555;SDS011;2290;48.674;9.018;2023-04-24T07:34:03;1.97;;;1.30;;
4555;SDS011;2290;48.674;9.018;2023-04-24T07:36:29;2.27;;;1.53;;
4555;SDS011;2290;48.674;9.018;2023-04-24T07:38:55;3.30;;;1.20;;
4555;SDS011;2290;48.674;9.018;2023-04-24T07:41:24;1.40;;;1.20;;
4555;SDS011;2290;48.674;9.018;2023-04-24T07:43:50;1.53;;;1.30;;
4555;SDS011;2290;48.674;9.018;2023-04-24T07:46:16;1.87;;;1.67;;
4555;SDS011;2290;48.674;9.018;2023-04-24T07:48:42;1.63;;;1.30;;
4555;SDS011;2290;48.674;9.018;2023-04-24T07:51:08;1.60;;;1.43;;
4555;SDS011;2290;48.674;9.018;2023-04-24T07:53:35;1.67;;;1.37;;
4555;SDS011;2290;48.674;9.018;2023-04-24T07:56:01;1.83;;;1.60;;
4555;SDS011;2290;48.674;9.018;2023-04-24T07:58:27;2.17;;;1.60;;
4555;SDS011;2290;48.674;9.018;2023-04-24T08:00:52;1.60;;;1.50;;
4555;SDS011;2290;48.674;9.018;2023-04-24T08:03:19;1.30;;;1.20;;
4555;SDS011;2290;48.674;9.018;2023-04-24T08:05:45;3.87;;;1.73;;
4555;SDS011;2290;48.674;9.018;2023-04-24T08:08:11;4.80;;;1.50;;
4555;SDS011;2290;48.674;9.018;2023-04-24T08:10:36;1.57;;;1.30;;
4555;SDS011;2290;48.674;9.018;2023-04-24T08:13:03;1.67;;;1.40;;
4555;SDS011;2290;48.674;9.018;2023-04-24T08:15:29;1.70;;;1.40;;
4555;SDS011;2290;48.674;9.018;2023-04-24T08:17:55;3.27;;;1.63;;
4555;SDS011;2290;48.674;9.018;2023-04-24T08:20:20;2.20;;;1.63;;
4555;SDS011;2290;48.674;9.018;2023-04-24T08:22:47;2.70;;;1.53;;
4555;SDS011;2290;48.674;9.018;2023-04-24T08:25:14;2.13;;;1.60;;
4555;SDS011;2290;48.674;9.018;2023-04-24T08:27:40;1.93;;;1.70;;
4555;SDS011;2290;48.674;9.018;2023-04-24T08:30:06;2.20;;;1.57;;
4555;SDS011;2290;48.674;9.018;2023-04-24T08:32:32;1.83;;;1.50;;
4555;SDS011;2290;48.674;9.018;2023-04-24T08:34:58;1.60;;;1.50;;
4555;SDS011;2290;48.674;9.018;2023-04-24T08:37:25;3.60;;;1.83;;
4555;SDS011;2290;48.674;9.018;2023-04-24T08:39:52;3.97;;;1.47;;
4555;SDS011;2290;48.674;9.018;2023-04-24T08:42:19;2.97;;;2.00;;
4555;SDS011;2290;48.674;9.018;2023-04-24T08:44:46;1.93;;;1.70;;
4555;SDS011;2290;48.674;9.018;2023-04-24T08:47:13;2.00;;;1.67;;
4555;SDS011;2290;48.674;9.018;2023-04-24T08:49:40;2.23;;;1.73;;
4555;SDS011;2290;48.674;9.018;2023-04-24T08:52:05;5.87;;;3.03;;
4555;SDS011;2290;48.674;9.018;2023-04-24T08:54:31;6.40;;;1.77;;
4555;SDS011;2290;48.674;9.018;2023-04-24T08:57:00;3.10;;;1.50;;
4555;SDS011;2290;48.674;9.018;2023-04-24T08:59:28;1.60;;;1.50;;
4555;SDS011;2290;48.674;9.018;2023-04-24T09:01:56;3.47;;;1.87;;
4555;SDS011;2290;48.674;9.018;2023-04-24T09:04:23;2.30;;;2.10;;
4555;SDS011;2290;48.674;9.018;2023-04-24T09:06:55;3.10;;;1.70;;
4555;SDS011;2290;48.674;9.018;2023-04-24T09:09:23;1.50;;;1.40;;
4555;SDS011;2290;48.674;9.018;2023-04-24T09:11:50;1.63;;;1.53;;
4555;SDS011;2290;48.674;9.018;2023-04-24T09:14:18;1.67;;;1.43;;
4555;SDS011;2290;48.674;9.018;2023-04-24T09:16:45;2.10;;;1.40;;
4555;SDS011;2290;48.674;9.018;2023-04-24T09:19:11;2.40;;;1.80;;
4555;SDS011;2290;48.674;9.018;2023-04-24T09:21:36;2.13;;;1.27;;
4555;SDS011;2290;48.674;9.018;2023-04-24T09:24:08;3.20;;;1.50;;
4555;SDS011;2290;48.674;9.018;2023-04-24T09:26:45;2.50;;;1.33;;
4555;SDS011;2290;48.674;9.018;2023-04-24T09:29:17;2.20;;;1.30;;
4555;SDS011;2290;48.674;9.018;2023-04-24T09:31:43;2.80;;;1.20;;
4555;SDS011;2290;48.674;9.018;2023-04-24T09:34:10;1.87;;;1.40;;
4555;SDS011;2290;48.674;9.018;2023-04-24T09:36:36;1.30;;;1.20;;
4555;SDS011;2290;48.674;9.018;2023-04-24T09:39:08;1.30;;;1.20;;
4555;SDS011;2290;48.674;9.018;2023-04-24T09:41:44;1.83;;;1.40;;
4555;SDS011;2290;48.674;9.018;2023-04-24T09:44:13;2.43;;;1.10;;
4555;SDS011;2290;48.674;9.018;2023-04-24T09:46:41;2.03;;;1.20;;
4555;SDS011;2290;48.674;9.018;2023-04-24T09:49:08;1.70;;;1.27;;
4555;SDS011;2290;48.674;9.018;2023-04-24T09:51:35;2.03;;;1.70;;
4555;SDS011;2290;48.674;9.018;2023-04-24T09:54:03;1.27;;;1.13;;
4555;SDS011;2290;48.674;9.018;2023-04-24T09:56:32;1.53;;;1.40;;
4555;SDS011;2290;48.674;9.018;2023-04-24T09:59:04;2.03;;;1.53;;
4555;SDS011;2290;48.674;9.018;2023-04-24T10:01:33;2.40;;;1.80;;
4555;SDS011;2290;48.674;9.018;2023-04-24T10:03:59;2.60;;;1.47;;
4555;SDS011;2290;48.674;9.018;2023-04-24T10:06:33;2.20;;;1.33;;
4555;SDS011;2290;48.674;9.018;2023-04-24T10:09:16;1.80;;;1.40;;
4555;SDS011;2290;48.674;9.018;2023-04-24T10:11:45;1.50;;;1.40;;
4555;SDS011;2290;48.674;9.018;2023-04-24T10:14:15;2.03;;;1.40;;
4555;SDS011;2290;48.674;9.018;2023-04-24T10:16:45;1.10;;;1.00;;
4555;SDS011;2290;48.674;9.018;2023-04-24T10:19:12;1.40;;;1.30;;
4555;SDS011;2290;48.674;9.018;2023-04-24T10:21:39;1.20;;;1.10;;
4555;SDS011;2290;48.674;9.018;2023-04-24T10:24:07;1.37;;;1.13;;
4555;SDS011;2290;48.674;9.018;2023-04-24T10:26:34;1.93;;;1.30;;
4555;SDS011;2290;48.674;9.018;2023-04-24T10:29:01;1.13;;;1.03;;
4555;SDS011;2290;48.674;9.018;2023-04-24T10:31:28;3.30;;;1.40;;
4555;SDS011;2290;48.674;9.018;2023-04-24T10:33:57;1.60;;;1.10;;
4555;SDS011;2290;48.674;9.018;2023-04-24T10:36:24;1.37;;;1.27;;
4555;SDS011;2290;48.674;9.018;2023-04-24T10:38:54;1.27;;;1.17;;
4555;SDS011;2290;48.674;9.018;2023-04-24T10:41:21;1.13;;;1.03;;
4555;SDS011;2290;48.674;9.018;2023-04-24T10:44:06;2.17;;;1.10;;
4555;SDS011;2290;48.674;9.018;2023-04-24T10:46:36;1.40;;;1.27;;
4555;SDS011;2290;48.674;9.018;2023-04-24T10:49:03;2.50;;;1.30;;
4555;SDS011;2290;48.674;9.018;2023-04-24T10:51:47;1.63;;;1.37;;
4555;SDS011;2290;48.674;9.018;2023-04-24T10:59:47;1.30;;;1.10;;
4555;SDS011;2290;48.674;9.018;2023-04-24T11:02:17;1.30;;;1.20;;
4555;SDS011;2290;48.674;9.018;2023-04-24T11:05:02;2.10;;;1.50;;
4555;SDS011;2290;48.674;9.018;2023-04-24T11:07:28;1.83;;;1.20;;
4555;SDS011;2290;48.674;9.018;2023-04-24T11:09:58;1.33;;;1.23;;
4555;SDS011;2290;48.674;9.018;2023-04-24T11:12:25;1.70;;;1.30;;
4555;SDS011;2290;48.674;9.018;2023-04-24T11:19:59;1.30;;;1.20;;
4555;SDS011;2290;48.674;9.018;2023-04-24T11:22:26;2.17;;;1.47;;
4555;SDS011;2290;48.674;9.018;2023-04-24T11:24:56;1.33;;;1.23;;
4555;SDS011;2290;48.674;9.018;2023-04-24T11:27:26;1.20;;;1.10;;
4555;SDS011;2290;48.674;9.018;2023-04-24T11:30:04;1.53;;;1.03;;
4555;SDS011;2290;48.674;9.018;2023-04-24T11:32:37;1.50;;;1.40;;
4555;SDS011;2290;48.674;9.018;2023-04-24T11:35:06;4.03;;;1.40;;
4555;SDS011;2290;48.674;9.018;2023-04-24T11:37:47;1.40;;;1.30;;
4555;SDS011;2290;48.674;9.018;2023-04-24T11:40:15;1.60;;;1.50;;
4555;SDS011;2290;48.674;9.018;2023-04-24T11:42:43;1.50;;;1.33;;
4555;SDS011;2290;48.674;9.018;2023-04-24T11:45:10;1.40;;;1.30;;
4555;SDS011;2290;48.674;9.018;2023-04-24T11:47:39;1.30;;;1.20;;
4555;SDS011;2290;48.674;9.018;2023-04-24T11:50:07;4.13;;;1.23;;
4555;SDS011;2290;48.674;9.018;2023-04-24T11:52:41;2.00;;;1.53;;
4555;SDS011;2290;48.674;9.018;2023-04-24T11:57:43;1.90;;;1.30;;
4555;SDS011;2290;48.674;9.018;2023-04-24T12:00:20;5.23;;;1.60;;
4555;SDS011;2290;48.674;9.018;2023-04-24T12:03:06;1.63;;;1.33;;
4555;SDS011;2290;48.674;9.018;2023-04-24T12:05:37;1.50;;;1.30;;
4555;SDS011;2290;48.674;9.018;2023-04-24T12:08:03;2.20;;;1.40;;
4555;SDS011;2290;48.674;9.018;2023-04-24T12:10:30;2.83;;;1.47;;
4555;SDS011;2290;48.674;9.018;2023-04-24T12:12:58;1.57;;;1.40;;
4555;SDS011;2290;48.674;9.018;2023-04-24T12:15:25;2.60;;;1.53;;
4555;SDS011;2290;48.674;9.018;2023-04-24T12:17:53;1.73;;;1.60;;
4555;SDS011;2290;48.674;9.018;2023-04-24T12:20:27;2.40;;;1.50;;
4555;SDS011;2290;48.674;9.018;2023-04-24T12:22:58;2.67;;;1.70;;
4555;SDS011;2290;48.674;9.018;2023-04-24T12:25:26;1.93;;;1.60;;
4555;SDS011;2290;48.674;9.018;2023-04-24T12:30:33;1.57;;;1.30;;
4555;SDS011;2290;48.674;9.018;2023-04-24T12:33:03;1.67;;;1.47;;
4555;SDS011;2290;48.674;9.018;2023-04-24T12:35:29;1.40;;;1.30;;
4555;SDS011;2290;48.674;9.018;2023-04-24T12:38:04;1.50;;;1.40;;
4555;SDS011;2290;48.674;9.018;2023-04-24T12:40:32;2.10;;;1.50;;
4555;SDS011;2290;48.674;9.018;2023-04-24T12:42:57;1.73;;;1.30;;
4555;SDS011;2290;48.674;9.018;2023-04-24T12:45:23;1.70;;;1.50;;
4555;SDS011;2290;48.674;9.018;2023-04-24T12:47:51;1.30;;;1.20;;
4555;SDS011;2290;48.674;9.018;2023-04-24T12:50:16;2.00;;;1.50;;
4555;SDS011;2290;48.674;9.018;2023-04-24T12:52:43;2.03;;;1.70;;
4555;SDS011;2290;48.674;9.018;2023-04-24T12:55:09;3.57;;;1.60;;
4555;SDS011;2290;48.674;9.018;2023-04-24T12:57:37;1.40;;;1.30;;
4555;SDS011;2290;48.674;9.018;2023-04-24T13:00:04;3.10;;;1.43;;
4555;SDS011;2290;48.674;9.018;2023-04-24T13:02:32;2.77;;;1.40;;
4555;SDS011;2290;48.674;9.018;2023-04-24T13:05:00;2.27;;;1.60;;
4555;SDS011;2290;48.674;9.018;2023-04-24T13:07:26;2.40;;;1.80;;
4555;SDS011;2290;48.674;9.018;2023-04-24T13:09:54;6.77;;;1.60;;
4555;SDS011;2290;48.674;9.018;2023-04-24T13:12:20;1.63;;;1.40;;
4555;SDS011;2290;48.674;9.018;2023-04-24T13:14:48;4.33;;;1.60;;
4555;SDS011;2290;48.674;9.018;2023-04-24T13:17:16;2.33;;;1.60;;
4555;SDS011;2290;48.674;9.018;2023-04-24T13:19:42;1.50;;;1.23;;
4555;SDS011;2290;48.674;9.018;2023-04-24T13:22:10;1.70;;;1.50;;
4555;SDS011;2290;48.674;9.018;2023-04-24T13:24:37;1.70;;;1.60;;
4555;SDS011;2290;48.674;9.018;2023-04-24T13:27:05;1.97;;;1.63;;
4555;SDS011;2290;48.674;9.018;2023-04-24T13:29:32;2.10;;;1.60;;
4555;SDS011;2290;48.674;9.018;2023-04-24T13:31:58;2.27;;;1.80;;
4555;SDS011;2290;48.674;9.018;2023-04-24T13:34:26;3.53;;;1.80;;
4555;SDS011;2290;48.674;9.018;2023-04-24T13:36:55;2.00;;;1.77;;
4555;SDS011;2290;48.674;9.018;2023-04-24T13:39:23;3.57;;;1.73;;
4555;SDS011;2290;48.674;9.018;2023-04-24T13:41:50;1.60;;;1.50;;
4555;SDS011;2290;48.674;9.018;2023-04-24T13:44:18;2.20;;;1.67;;
4555;SDS011;2290;48.674;9.018;2023-04-24T13:46:46;1.83;;;1.57;;
4555;SDS011;2290;48.674;9.018;2023-04-24T13:49:14;2.13;;;1.50;;
4555;SDS011;2290;48.674;9.018;2023-04-24T13:51:40;2.07;;;1.40;;
4555;SDS011;2290;48.674;9.018;2023-04-24T13:54:06;3.17;;;2.00;;
4555;SDS011;2290;48.674;9.018;2023-04-24T13:56:32;2.43;;;1.90;;
4555;SDS011;2290;48.674;9.018;2023-04-24T13:58:58;2.90;;;2.07;;
4555;SDS011;2290;48.674;9.018;2023-04-24T14:01:24;1.80;;;1.40;;
4555;SDS011;2290;48.674;9.018;2023-04-24T14:03:50;3.03;;;2.83;;
4555;SDS011;2290;48.674;9.018;2023-04-24T14:06:17;1.80;;;1.63;;
4555;SDS011;2290;48.674;9.018;2023-04-24T14:08:43;1.80;;;1.57;;
4555;SDS011;2290;48.674;9.018;2023-04-24T14:11:09;2.03;;;1.83;;
4555;SDS011;2290;48.674;9.018;2023-04-24T14:13:35;2.67;;;1.90;;
4555;SDS011;2290;48.674;9.018;2023-04-24T14:16:05;7.50;;;1.70;;
4555;SDS011;2290;48.674;9.018;2023-04-24T14:18:31;3.60;;;2.20;;
4555;SDS011;2290;48.674;9.018;2023-04-24T14:20:57;2.13;;;1.80;;
4555;SDS011;2290;48.674;9.018;2023-04-24T14:23:24;6.47;;;2.00;;
4555;SDS011;2290;48.674;9.018;2023-04-24T14:25:49;2.23;;;2.00;;
4555;SDS011;2290;48.674;9.018;2023-04-24T14:28:18;2.30;;;2.10;;
4555;SDS011;2290;48.674;9.018;2023-04-24T14:30:45;2.83;;;1.90;;
4555;SDS011;2290;48.674;9.018;2023-04-24T14:33:10;3.60;;;2.00;;
4555;SDS011;2290;48.674;9.018;2023-04-24T14:35:37;2.87;;;1.90;;
4555;SDS011;2290;48.674;9.018;2023-04-24T14:38:03;2.60;;;1.70;;
4555;SDS011;2290;48.674;9.018;2023-04-24T14:40:30;2.40;;;1.90;;
4555;SDS011;2290;48.674;9.018;2023-04-24T14:42:57;4.63;;;1.83;;
4555;SDS011;2290;48.674;9.018;2023-04-24T14:45:23;2.23;;;1.77;;
4555;SDS011;2290;48.674;9.018;2023-04-24T14:47:50;2.07;;;1.67;;
4555;SDS011;2290;48.674;9.018;2023-04-24T14:50:16;2.63;;;2.10;;
4555;SDS011;2290;48.674;9.018;2023-04-24T14:52:42;1.97;;;1.70;;
4555;SDS011;2290;48.674;9.018;2023-04-24T14:55:09;1.90;;;1.70;;
4555;SDS011;2290;48.674;9.018;2023-04-24T14:57:35;2.87;;;2.00;;
4555;SDS011;2290;48.674;9.018;2023-04-24T15:00:02;1.70;;;1.60;;
4555;SDS011;2290;48.674;9.018;2023-04-24T15:02:34;3.83;;;1.80;;
4555;SDS011;2290;48.674;9.018;2023-04-24T15:05:02;1.80;;;1.40;;
4555;SDS011;2290;48.674;9.018;2023-04-24T15:07:29;2.23;;;1.53;;
4555;SDS011;2290;48.674;9.018;2023-04-24T15:09:54;4.93;;;1.60;;
4555;SDS011;2290;48.674;9.018;2023-04-24T15:12:21;1.70;;;1.57;;
4555;SDS011;2290;48.674;9.018;2023-04-24T15:14:47;2.97;;;1.80;;
4555;SDS011;2290;48.674;9.018;2023-04-24T15:17:13;1.67;;;1.57;;
4555;SDS011;2290;48.674;9.018;2023-04-24T15:19:39;2.70;;;1.60;;
4555;SDS011;2290;48.674;9.018;2023-04-24T15:22:05;2.37;;;1.60;;
4555;SDS011;2290;48.674;9.018;2023-04-24T15:24:31;2.47;;;1.70;;
4555;SDS011;2290;48.674;9.018;2023-04-24T15:26:56;1.93;;;1.60;;
4555;SDS011;2290;48.674;9.018;2023-04-24T15:29:22;2.20;;;1.70;;